Ventura, CA

11:10 AM PDT on August 25, 2016 (GMT -0700)
| | Change Station

Elev -9999 ft 0.00 °N, 0.00 °E | Updated

Clear
Clear
68 °F
Feels Like 68 °F
N
9
Wind Variable Wind from WSW
Gusts mph

Today
High -- | Low -- °F
--% Chance of Precip.
Yesterday
High -- | Low -- °F
Precip. -- in
Pressure 29.96 in
Visibility 8.0 miles
Clouds Mostly Cloudy 1400 ft
Dew Point 59 °F
Humidity 72%
Rainfall --
Snow Depth Not available.
6:25 AM 7:31 PM
Last Quarter, 43% visible
METAR KOXR 251751Z 23006KT 8SM BKN014 19/16 A2997 RMK AO2 SLP146 T01940156 10200 20156 50001 $
Pressure 29.96 in
Visibility 8.0 miles
Clouds Mostly Cloudy 1400 ft
Dew Point 59 °F
Humidity 72%
Rainfall --
Snow Depth Not available.
6:25 AM 7:31 PM
Last Quarter, 43% visible
METAR KOXR 251751Z 23006KT 8SM BKN014 19/16 A2997 RMK AO2 SLP146 T01940156 10200 20156 50001 $
A tropical disturbance pushing toward the Bahamas, is expected to develop into a tropical depression or storm, and will likely target Florida and the Gulf Coast this weekend into next week.

Right now, the disturbance remains a broad area of low pressure pushing through the Dominican Republic and Haiti, headed toward the southeast Bahamas. Rainfall totals over 3 inches (with locally higher amounts) are expected in HispaƱiola, particularly over elevated terrain.

10-Day Weather Forecast

Almanac

Astronomy

Aug. 25, 2016 Rise Set
Actual Time
Civil Twilight
Nautical Twilight
Astronomical Twilight
Moon
Length of Visible Light
Length of Day
Tomorrow will be .
, % of the Moon is Illuminated

Today's Extremes

State Highs State Lows

Community

WunderPhotos

Upload Photos

1,934,890 photos uploaded!

WunderBlog® & News

Nearby

Air Quality

  Air Quality AQ Index Pollutant
Not available.

Snow Depth

Station Depth Elevation

Earthquake Activity

City Distance Mag. Time & Date
Minimum magnitude displayed is 2.5.

Coastal Water Temperatures

Place Temperature

Stations

Nearby Weather Stations

Station Location Temp. Windchill Dew Point Humidity Wind Precip. Elev Updated Type
                   

Watches & Warnings

There are currently no watches in effect.